Overview Statistics Trail Chart Weather Telemetry Raw packets
 

This is the latest recevied weather packets stored in our database for station/object YD2CLX-11. If no packets are shown the sender has not sent any weather packets the latest 10 day(s).

<< 39 40 41 42 43 44 45 >>
Time Temp. Humidity Pressure Rain* Wind** Luminosity Snow
1787996184 33.89° C 49% 995.7 hPa - - - -
1787995583 34.44° C 46% 995.6 hPa - - - -
1787994981 35° C 44% 995.5 hPa - - - -
1787994380 35° C 43% 995.4 hPa - - - -
1787993779 35.56° C 41% 995.3 hPa - - - -
1787993177 35.56° C 40% 995.2 hPa - - - -
1787992575 36.11° C 39% 995.1 hPa - - - -
1787991974 36.67° C 38% 995.1 hPa - - - -
1787991373 36.11° C 37% 995.2 hPa - - - -
1787990772 36.67° C 38% 995.2 hPa - - - -
1787990171 37.22° C 37% 995.2 hPa - - - -
1787989570 36.67° C 37% 995.4 hPa - - - -
1787988968 37.78° C 36% 995.3 hPa - - - -
1787988367 37.78° C 35% 995.4 hPa - - - -
1787987766 37.78° C 35% 995.4 hPa - - - -
1787987164 38.33° C 35% 995.4 hPa - - - -
1787986564 37.78° C 35% 995.5 hPa - - - -
1787985962 37.22° C 34% 995.6 hPa - - - -
1787985361 37.22° C 34% 995.7 hPa - - - -
1787984761 37.78° C 34% 995.9 hPa - - - -
1787984160 38.33° C 33% 995.9 hPa - - - -
1787983559 37.78° C 33% 996.1 hPa - - - -
1787982958 37.78° C 32% 996.3 hPa - - - -
1787982356 37.78° C 32% 996.5 hPa - - - -
1787981755 36.67° C 34% 996.7 hPa - - - -

* Rain since midnight (hover to see other rain measurements)
** Current wind speed in m/s (hover to see current wind gust speed)